• Join FlightAware (Why Join?)
  • Login
  • US Flag 
07:18AM EDT


 

Airport Tracker/Info


-or-


 

Live Flight TrackerFlight Track Log ✈ EJM53 ✈ 30-Jun-2013 ✈ KBED - KASE

Flight Track Log - Related Links

Times and Time Zones

All times are in EDT time to prevent confusion due to time zone crossing. See the EJM53 flight status page for this flight to view local times or setup timezone preferences in your user account.

Time Position Orientation Groundspeed Altitude Reporting Facility
EDT Latitude Longitude Course Direction KTS MPH feet Rate Location/Type
09:29AM 42.4667 -71.3167 316° Northwest 207 238 1,000  Level KA90
09:30AM 42.5167 -71.3833 316° Northwest 223 257 3,400 2,760 Climbing KA90
09:32AM 42.6369 -71.3422 14° North 265 305 9,500 3,120 Climbing Boston Center
09:33AM 42.7053 -71.3156 16° North 270 311 12,300 2,580 Climbing Boston Center
09:34AM 42.7519 -71.3967 308° West 227 261 14,700 2,520 Climbing Boston Center
09:35AM 42.7633 -71.4956 279° West 251 289 17,400 2,400 Climbing Boston Center
09:36AM 42.7767 -71.6083 279° West 292 336 19,500 2,040 Climbing Boston Center
09:37AM 42.7900 -71.7272 279° West 312 359 21,500 1,860 Climbing Boston Center
09:38AM 42.8033 -71.8514 278° West 324 373 23,300 1,800 Climbing Boston Center
09:39AM 42.8164 -71.9986 277° West 347 399 25,100 1,620 Climbing Boston Center
09:40AM 42.8294 -72.1314 278° West 353 406 26,600 1,500 Climbing Boston Center
09:41AM 42.8442 -72.2672 278° West 359 413 28,100 1,320 Climbing Boston Center
09:42AM 42.8631 -72.3947 281° West 369 425 29,300 1,320 Climbing Boston Center
09:43AM 42.8733 -72.5336 276° West 374 430 30,800 1,440 Climbing Boston Center
09:44AM 42.8794 -72.6667 274° West 369 425 32,200 1,140 Climbing Boston Center
09:45AM 42.8939 -72.7972 279° West 364 419 33,100 900 Climbing Boston Center
09:46AM 42.9058 -72.9389 277° West 364 419 34,100 1,020 Climbing Boston Center
09:47AM 42.9256 -73.1122 279° West 372 428 35,400 960 Climbing Boston Center
09:48AM 42.9372 -73.2456 277° West 362 417 36,300 840 Climbing Boston Center
09:49AM 42.9450 -73.3478 276° West 357 411 37,100 780 Climbing Boston Center
09:50AM 42.9522 -73.4783 274° West 339 390 37,900 420 Climbing Boston Center
09:51AM 42.9656 -73.6006 279° West 333 383 38,000  Climbing Boston Center
09:52AM 42.9767 -73.7314 277° West 338 389 38,000  Level Boston Center
09:53AM 42.9856 -73.8650 275° West 343 395 38,000  Level Boston Center
09:54AM 42.9983 -74.0042 277° West 361 415 38,000  Level Boston Center
09:55AM 43.0108 -74.1467 277° West 373 429 38,000  Level Boston Center
09:56AM 43.0231 -74.2917 277° West 384 442 38,000  Level Boston Center
09:57AM 43.0353 -74.4369 277° West 389 448 38,000  Level Boston Center
09:58AM 43.0450 -74.5850 275° West 389 448 38,000  Level Boston Center
09:59AM 43.0569 -74.7303 276° West 389 448 38,000  Level Boston Center
10:00AM 43.0683 -74.8758 276° West 389 448 38,000  Level Boston Center
10:01AM 43.0714 -75.0239 272° West 389 448 38,000  Level Boston Center
10:02AM 43.0742 -75.1689 272° West 384 442 38,000  Level Boston Center
10:03AM 43.0769 -75.3169 272° West 384 442 38,000  Level Boston Center
10:04AM 43.0817 -75.4592 273° West 384 442 38,000  Level Boston Center
10:05AM 43.0817 -75.6042 270° West 384 442 38,000  Level Boston Center
10:06AM 43.0861 -75.7494 272° West 384 442 38,000  Level Boston Center
10:07AM 43.0900 -75.8947 272° West 384 442 38,000  Level Boston Center
10:08AM 43.0897 -76.0397 270° West 384 442 38,000  Level Boston Center
10:10AM 43.0931 -76.2842 271° West 375 432 38,000  Level Cleveland Center
10:11AM 43.0942 -76.4289 271° West 381 438 38,000  Level Cleveland Center
10:12AM 43.0953 -76.5769 271° West 386 444 38,000  Level Cleveland Center
10:13AM 43.0972 -76.6961 271° West 386 444 38,000  Level Cleveland Center
10:14AM 43.0981 -76.8497 270° West 381 438 38,000  Level Cleveland Center
10:15AM 43.0986 -76.9919 270° West 381 438 38,000  Level Cleveland Center
10:16AM 43.0989 -77.1369 270° West 381 438 38,000  Level Cleveland Center
10:17AM 43.0989 -77.2847 270° West 386 444 38,000  Level Cleveland Center
10:18AM 43.1008 -77.4269 271° West 386 444 38,000  Level Cleveland Center
10:19AM 43.0983 -77.5750 269° West 386 444 38,000  Level Cleveland Center
10:20AM 43.1000 -77.7169 271° West 386 444 38,000  Level Cleveland Center
10:21AM 43.0994 -77.8622 270° West 386 444 38,000  Level Cleveland Center
10:22AM 43.0989 -78.0242 270° West 386 444 38,000  Level Cleveland Center
10:23AM 43.0978 -78.1664 269° West 386 444 38,000  Level Cleveland Center
10:24AM 43.0967 -78.3144 269° West 386 444 38,000  Level Cleveland Center
10:25AM 43.0953 -78.4622 269° West 386 444 38,000  Level Cleveland Center
10:26AM 43.0936 -78.6072 269° West 386 444 38,000  Level Cleveland Center
10:27AM 43.0939 -78.7581 270° West 386 444 38,000  Level Cleveland Center
10:28AM 43.0900 -78.9089 268° West 386 444 38,000  Level Cleveland Center
10:29AM 43.0833 -79.0000 264° West 400 460 38,000  Level Toronto Center
10:30AM 43.0833 -79.1500 270° West 400 460 38,000  Level Toronto Center
10:31AM 43.0667 -79.3167 262° West 400 460 38,000  Level Toronto Center
10:32AM 43.0667 -79.4667 270° West 410 472 38,000  Level Toronto Center
10:33AM 43.0500 -79.6167 261° West 400 460 38,000  Level Toronto Center
10:34AM 43.0333 -79.7667 261° West 410 472 38,000  Level Toronto Center
10:35AM 43.0000 -79.9333 255° West 410 472 38,000  Level Toronto Center
10:36AM 42.9833 -80.0667 260° West 410 472 38,000  Level Toronto Center
10:37AM 42.9500 -80.2333 255° West 410 472 38,000  Level Toronto Center
10:38AM 42.9333 -80.3667 260° West 410 472 38,000  Level Toronto Center
10:39AM 42.9000 -80.5167 253° West 420 483 38,000  Level Toronto Center
10:40AM 42.8833 -80.6833 262° West 420 483 38,000 240 Level Toronto Center
10:41AM 42.8333 -80.8333 246° West 410 472 38,500 600 Climbing Toronto Center
10:42AM 42.8167 -81.0000 262° West 400 460 39,200 660 Climbing Toronto Center
10:43AM 42.7833 -81.1333 251° West 390 449 39,900 360 Climbing Toronto Center
10:44AM 42.7667 -81.2667 260° West 390 449 40,000  Climbing Toronto Center
10:45AM 42.7500 -81.4000 260° West 390 449 40,000  Level Toronto Center
10:46AM 42.7167 -81.5667 255° West 400 460 40,000  Level Toronto Center
10:47AM 42.7000 -81.7167 261° West 400 460 40,000  Level Toronto Center
10:48AM 42.6667 -81.8500 251° West 400 460 40,000  Level Toronto Center
10:49AM 42.6333 -81.9833 251° West 400 460 40,000  Level Toronto Center
10:50AM 42.6000 -82.1500 255° West 410 472 40,000  Level Toronto Center
10:51AM 42.5833 -82.3000 261° West 410 472 40,000  Level Toronto Center
10:52AM 42.5667 -82.4333 260° West 410 472 40,000  Level Toronto Center
10:53AM 42.5333 -82.6000 255° West 410 472 40,000  Level Toronto Center
10:54AM 42.5000 -82.7500 253° West 410 472 40,000  Level Toronto Center
10:55AM 42.4667 -82.8833 251° West 410 472 40,000  Level Toronto Center
10:56AM 42.4500 -83.0500 262° West 410 472 40,000  Level Toronto Center
10:57AM 42.4000 -83.2000 246° West 410 472 40,000  Level Toronto Center
10:58AM 42.3833 -83.3333 260° West 420 483 40,000  Level Toronto Center
10:59AM 42.3500 -83.4833 253° West 420 483 40,000  Level Toronto Center
11:00AM 42.3333 -83.6500 262° West 420 483 40,000  Level Toronto Center
11:01AM 42.2833 -83.8000 246° West 420 483 40,000  Level Toronto Center
11:02AM 42.2667 -83.9500 262° West 420 483 40,000  Level Toronto Center
11:03AM 42.2333 -84.1167 255° West 420 483 40,000  Level Toronto Center
11:04AM 42.2000 -84.2500 251° West 420 483 40,000  Level Toronto Center
11:05AM 42.1722 -84.4603 260° West 424 488 40,000  Level Chicago Center
11:06AM 42.1408 -84.6114 254° West 421 484 40,000  Level Chicago Center
11:07AM 42.1078 -84.7661 254° West 428 493 40,000  Level Chicago Center
11:08AM 42.0864 -84.9222 260° West 427 491 40,000  Level Chicago Center
11:09AM 42.0761 -85.0828 265° West 430 495 40,000  Level Chicago Center
11:10AM 42.0653 -85.2744 266° West 429 494 40,000  Level Chicago Center
11:11AM 42.0556 -85.4350 265° West 429 494 40,000  Level Chicago Center
11:12AM 42.0461 -85.5969 266° West 433 498 40,000  Level Chicago Center
11:13AM 42.0361 -85.7589 265° West 435 501 40,000  Level Chicago Center
11:14AM 42.0253 -85.9203 265° West 434 499 40,000  Level Chicago Center
11:15AM 42.0147 -86.0956 265° West 438 504 40,000  Level Chicago Center
11:16AM 42.0042 -86.2583 265° West 440 506 40,000  Level Chicago Center
11:17AM 41.9925 -86.4222 265° West 445 512 40,000  Level Chicago Center
11:18AM 41.9811 -86.5869 265° West 447 514 40,000  Level Chicago Center
11:19AM 41.9700 -86.7586 265° West 453 521 40,000  Level Chicago Center
11:20AM 41.9547 -86.9586 264° West 453 521 40,000  Level Chicago Center
11:21AM 41.9428 -87.1264 265° West 456 525 40,000  Level Chicago Center
11:22AM 41.9300 -87.2928 264° West 455 524 40,000  Level Chicago Center
11:24AM 41.9161 -87.4592 264° West 453 521 40,000  Level Chicago Center
11:25AM 41.9031 -87.6261 264° West 456 525 40,000  Level Chicago Center
11:26AM 41.8878 -87.8286 264° West 460 529 40,000  Level Chicago Center
11:27AM 41.8750 -87.9928 264° West 453 521 40,000  Level Chicago Center
11:28AM 41.8603 -88.1603 263° West 456 525 40,000  Level Chicago Center
11:29AM 41.8464 -88.3269 264° West 457 526 40,000  Level Chicago Center
11:30AM 41.8286 -88.5253 263° West 454 522 40,000  Level Chicago Center
11:31AM 41.8142 -88.6903 263° West 451 519 40,000  Level Chicago Center
11:32AM 41.7997 -88.8539 263° West 447 514 40,000  Level Chicago Center
11:33AM 41.7847 -89.0194 263° West 452 520 40,000  Level Chicago Center
11:34AM 41.7694 -89.1850 263° West 452 520 40,000  Level Chicago Center
11:35AM 41.7517 -89.3847 263° West 453 521 40,000  Level Chicago Center
11:36AM 41.7356 -89.5514 263° West 454 522 40,000  Level Chicago Center
11:37AM 41.7214 -89.7083 263° West 449 517 40,000  Level Chicago Center
11:38AM 41.7056 -89.8733 263° West 450 518 40,000  Level Chicago Center
11:39AM 41.6861 -90.0706 263° West 449 517 40,000  Level Chicago Center
11:40AM 41.6700 -90.2347 263° West 448 516 40,000  Level Chicago Center
11:41AM 41.6517 -90.4036 262° West 459 528 40,000  Level Chicago Center
11:42AM 41.6339 -90.5681 262° West 451 519 40,000  Level Chicago Center
11:43AM 41.6142 -90.7528 262° West 458 527 40,000  Level Chicago Center
11:44AM 41.5967 -90.9192 262° West 457 526 40,000  Level Chicago Center
11:45AM 41.5789 -91.0869 262° West 459 528 40,000  Level Chicago Center
11:46AM 41.5600 -91.2536 261° West 457 526 40,000  Level Chicago Center
11:47AM 41.5408 -91.4219 261° West 460 529 40,000  Level Chicago Center
11:48AM 41.5189 -91.6214 262° West 456 525 40,000  Level Chicago Center
11:49AM 41.5033 -91.7889 263° West 457 526 40,000  Level Chicago Center
11:50AM 41.4878 -91.9547 263° West 455 524 40,000  Level Chicago Center
11:51AM 41.4717 -92.1203 263° West 453 521 40,000  Level Chicago Center
11:52AM 41.4544 -92.2864 262° West 454 522 40,000  Level Chicago Center
11:53AM 41.4356 -92.4853 263° West 453 521 40,000  Level Chicago Center
11:55AM 41.4178 -92.6497 262° West 453 521 40,000  Level Chicago Center
11:56AM 41.4006 -92.8142 262° West 453 521 40,000  Level Chicago Center
11:57AM 41.3831 -92.9806 262° West 458 527 40,000  Level Chicago Center
11:58AM 41.3636 -93.1783 263° West 456 525 40,000  Level Minneapolis Center
11:59AM 41.3417 -93.3783 262° West 459 528 40,000  Level Minneapolis Center
12:00PM 41.3236 -93.5422 262° West 456 525 40,000  Level Minneapolis Center
12:01PM 41.3069 -93.7056 262° West 452 520 40,000  Level Minneapolis Center
12:02PM 41.2894 -93.8683 262° West 452 520 40,000  Level Minneapolis Center
12:03PM 41.2692 -94.0353 261° West 458 527 40,000  Level Minneapolis Center
12:04PM 41.2481 -94.2203 261° West 455 524 40,000  Level Minneapolis Center
12:05PM 41.2289 -94.3853 261° West 454 522 40,000  Level Minneapolis Center
12:06PM 41.2094 -94.5514 261° West 454 522 40,000  Level Minneapolis Center
12:07PM 41.1892 -94.7167 261° West 453 521 40,000  Level Minneapolis Center
12:08PM 41.1656 -94.9136 261° West 450 518 40,000  Level Minneapolis Center
12:09PM 41.1444 -95.0772 260° West 449 517 40,000  Level Minneapolis Center
12:10PM 41.1275 -95.2089 260° West 450 518 40,000  Level Minneapolis Center
12:11PM 41.1019 -95.4069 260° West 451 519 40,000  Level Minneapolis Center
12:12PM 41.0803 -95.5747 260° West 455 524 40,000  Level Minneapolis Center
12:13PM 41.0578 -95.7386 260° West 452 520 40,000  Level Minneapolis Center
12:14PM 41.0361 -95.9014 260° West 447 514 40,000  Level Minneapolis Center
12:16PM 41.0117 -96.0981 261° West 446 513 40,000  Level Minneapolis Center
12:17PM 40.9853 -96.2942 260° West 448 516 40,000  Level Minneapolis Center
12:18PM 40.9631 -96.4586 260° West 450 518 40,000  Level Minneapolis Center
12:19PM 40.9406 -96.6203 260° West 448 516 40,000  Level Minneapolis Center
12:20PM 40.9192 -96.7797 260° West 443 510 40,000  Level Minneapolis Center
12:21PM 40.9044 -96.9392 263° West 439 505 40,000  Level Minneapolis Center
12:22PM 40.8894 -97.1000 263° West 441 507 40,000  Level Minneapolis Center
12:23PM 40.8736 -97.2622 263° West 444 511 40,000  Level Minneapolis Center
12:24PM 40.8539 -97.4600 263° West 437 503 40,000  Level Minneapolis Center
12:25PM 40.8381 -97.6194 263° West 438 504 40,000  Level Minneapolis Center
12:26PM 40.8217 -97.7781 262° West 436 502 40,000  Level Minneapolis Center
12:27PM 40.8053 -97.9333 262° West 429 494 40,000  Level Minneapolis Center
12:28PM 40.7931 -98.0572 263° West 426 490 40,000  Level Minneapolis Center
12:29PM 40.7722 -98.2400 261° West 420 483 40,000  Level Minneapolis Center
12:30PM 40.7567 -98.3925 262° West 419 482 40,000  Level Minneapolis Center
12:32PM 40.7194 -98.7328 262° West 422 486 40,000  Level Minneapolis Center
12:33PM 40.7011 -98.8883 261° West 425 489 40,000  Level Minneapolis Center
12:34PM 40.6872 -99.0144 262° West 428 493 40,000  Level Minneapolis Center
12:35PM 40.6653 -99.2033 261° West 432 497 40,000  Level Minneapolis Center
12:37PM 40.6400 -99.4250 262° West 435 501 40,000  Level Denver Center
12:37PM 40.6292 -99.5211 262° West 437 503 40,000  Level Minneapolis Center
12:38PM 40.6108 -99.6800 261° West 438 504 40,000  Level Minneapolis Center
12:39PM 40.5872 -99.8700 261° West 438 504 40,000  Level Minneapolis Center
12:40PM 40.5689 -100.0228 261° West 429 494 40,000  Level Minneapolis Center
12:41PM 40.5506 -100.1739 261° West 421 484 40,000  Level Minneapolis Center
12:42PM 40.5328 -100.3244 261° West 419 482 40,000  Level Minneapolis Center
12:44PM 40.5131 -100.4736 260° West 417 480 40,000  Level Minneapolis Center
12:45PM 40.4828 -100.6917 260° West 420 483 40,000  Level Denver Center
12:46PM 40.4606 -100.8636 260° West 424 488 40,000  Level Denver Center
12:47PM 40.4364 -101.0114 258° West 430 495 40,000  Level Denver Center
12:48PM 40.4086 -101.1578 256° West 431 496 40,000  Level Denver Center
12:49PM 40.3758 -101.3283 256° West 430 495 40,000  Level Denver Center
12:50PM 40.3481 -101.4758 256° West 434 499 40,000  Level Denver Center
12:51PM 40.3153 -101.6439 256° West 428 493 40,000  Level Denver Center
12:52PM 40.2867 -101.7883 255° West 427 491 40,000  Level Denver Center
12:53PM 40.2531 -101.9564 255° West 427 491 40,000  Level Denver Center
12:55PM 40.2153 -102.1440 255° West  Level FlightAware Approximate
12:55PM 40.1894 -102.2711 255° West 430 495 40,000  Level Denver Center
12:56PM 40.1611 -102.4161 256° West 430 495 40,000  Level Denver Center
12:57PM 40.1267 -102.5831 255° West 426 490 40,000  Level Denver Center
12:58PM 40.0969 -102.7281 255° West 430 495 40,000  Level Denver Center
12:59PM 40.0611 -102.8964 255° West 432 497 40,000  Level Denver Center
01:00PM 40.0314 -103.0408 255° West 432 497 40,000  Level Denver Center
01:01PM 39.9969 -103.2114 255° West 435 501 40,000  Level Denver Center
01:03PM 39.9661 -103.3558 254° West 434 499 40,000  Level Denver Center
01:04PM 39.9347 -103.4989 254° West 431 496 40,000  Level Denver Center
01:05PM 39.9025 -103.6564 255° West 434 499 40,000 -240 Level Denver Center
01:06PM 39.8647 -103.8278 254° West 450 518 39,600 -720 Descending Denver Center
01:07PM 39.8286 -103.9953 254° West 448 516 38,600 -1,020 Descending Denver Center
01:08PM 39.7939 -104.1506 254° West 448 516 37,600 -1,080 Descending Denver Center
01:09PM 39.7567 -104.3189 254° West 450 518 36,400 -1,680 Descending Denver Center
01:10PM 39.7206 -104.4800 254° West 461 531 34,200 -1,200 Descending Denver Center
01:11PM 39.6867 -104.6406 255° West 458 527 34,000 -120 Descending Denver Center
01:12PM 39.6694 -104.8178 263° West 458 527 34,000  Level Denver Center
01:13PM 39.6531 -104.9825 263° West 460 529 34,000  Level Denver Center
01:14PM 39.6364 -105.1458 263° West 457 526 34,000 -240 Level Denver Center
01:15PM 39.6167 -105.3219 262° West 458 527 33,600 -960 Descending Denver Center
01:16PM 39.5989 -105.4886 262° West 469 540 32,000 -1,620 Descending Denver Center
01:17PM 39.5792 -105.6667 262° West 466 536 30,300 -1,500 Descending Denver Center
01:18PM 39.5328 -105.8214 249° West 460 529 29,000 -900 Descending Denver Center
01:19PM 39.4867 -105.9722 248° West 453 521 28,500 -1,260 Descending Denver Center
01:20PM 39.4742 -106.1442 265° West 472 543 26,500 -2,040 Descending Denver Center
01:21PM 39.4664 -106.3056 266° West 453 521 24,400 -2,040 Descending Denver Center
01:22PM 39.4603 -106.4647 267° West 444 511 22,300 -2,580 Descending Denver Center
01:23PM 39.4522 -106.6300 266° West 418 481 19,100 -3,120 Descending Denver Center
01:24PM 39.4450 -106.7844 267° West 389 448 15,900 -2,520 Descending Denver Center
01:25PM 39.4378 -106.8978 265° West 343 395 14,000 -1,620 Descending Denver Center
01:26PM 39.3936 -106.9769 234° Southwest 287 330 12,600 -1,500 Descending Denver Center
01:27PM 39.3403 -106.9353 149° Southeast 245 282 11,000 -1,680 Descending Denver Center
01:28PM 39.2961 -106.9039 151° Southeast 202 232 9,200 -1,260 Descending Denver Center
01:29PM 39.2467 -106.8800 159° South 184 212 8,500 -720 Descending Denver Center
01:31PM 39.2167 -106.8667 180° South  Level FlightAware Approximate